createdAt,value
2023-05-07T00:01:03.524Z,13.21
2023-05-07T00:03:33.418Z,13.16
2023-05-07T00:05:59.999Z,13.13
2023-05-07T00:08:26.438Z,13.14
2023-05-07T00:10:56.849Z,13.12
2023-05-07T00:13:23.381Z,13.12
2023-05-07T00:15:49.942Z,13.11
2023-05-07T00:18:16.881Z,13.07
2023-05-07T00:20:43.235Z,13.08
2023-05-07T00:23:10.163Z,13.06
2023-05-07T00:25:36.625Z,13.05
2023-05-07T00:28:04.740Z,13.03
2023-05-07T00:30:31.315Z,13.01
2023-05-07T00:32:57.783Z,12.99
2023-05-07T00:35:24.362Z,12.97
2023-05-07T00:37:50.867Z,12.96
2023-05-07T00:40:17.269Z,12.92
2023-05-07T00:42:47.850Z,12.89
2023-05-07T00:45:17.809Z,12.85
2023-05-07T00:47:44.886Z,12.80
2023-05-07T00:50:14.214Z,12.81
2023-05-07T00:52:42.776Z,12.76
2023-05-07T00:55:09.432Z,12.73
2023-05-07T00:57:38.451Z,12.72
2023-05-07T01:00:07.064Z,12.72
2023-05-07T01:02:33.461Z,12.71
2023-05-07T01:05:04.251Z,12.66
2023-05-07T01:07:33.474Z,12.66
2023-05-07T01:09:59.913Z,12.64
2023-05-07T01:12:26.676Z,12.63
2023-05-07T01:14:53.300Z,12.57
2023-05-07T01:17:22.246Z,12.56
2023-05-07T01:19:51.107Z,12.50
2023-05-07T01:22:23.004Z,12.50
2023-05-07T01:24:49.632Z,12.46
2023-05-07T01:27:18.449Z,12.41
2023-05-07T01:29:44.932Z,12.37
2023-05-07T01:32:12.619Z,12.36
2023-05-07T01:34:40.715Z,12.35
2023-05-07T01:37:08.693Z,12.34
2023-05-07T01:39:40.874Z,12.34
2023-05-07T01:42:07.875Z,12.34
2023-05-07T01:44:34.622Z,12.27
2023-05-07T01:47:02.593Z,12.24
2023-05-07T01:49:29.215Z,12.17
2023-05-07T01:51:56.960Z,12.15
2023-05-07T01:54:29.624Z,12.17
2023-05-07T01:57:00.420Z,12.14
2023-05-07T01:59:27.020Z,12.08
2023-05-07T02:01:56.553Z,12.02
2023-05-07T02:04:26.122Z,11.97
2023-05-07T02:06:53.667Z,11.91
2023-05-07T02:09:20.248Z,11.87
2023-05-07T02:11:49.496Z,11.83
2023-05-07T02:14:16.394Z,11.81
2023-05-07T02:16:42.944Z,11.80
2023-05-07T02:19:09.386Z,11.82
2023-05-07T02:21:35.838Z,11.81
2023-05-07T02:24:04.782Z,11.73
2023-05-07T02:26:31.165Z,11.75
2023-05-07T02:28:57.618Z,11.75
2023-05-07T02:31:24.112Z,11.74
2023-05-07T02:33:50.753Z,11.73
2023-05-07T02:36:17.360Z,11.70
2023-05-07T02:38:45.993Z,11.67
2023-05-07T02:41:12.487Z,11.72
2023-05-07T02:43:38.949Z,11.67
2023-05-07T02:46:07.104Z,11.64
2023-05-07T02:48:34.341Z,11.60
2023-05-07T02:51:01.258Z,11.56
2023-05-07T02:53:30.476Z,11.51
2023-05-07T02:55:58.587Z,11.43
2023-05-07T02:58:25.260Z,11.46
2023-05-07T03:00:51.789Z,11.51
2023-05-07T03:03:18.633Z,11.48
2023-05-07T03:05:47.656Z,11.44
2023-05-07T03:08:16.388Z,11.42
2023-05-07T03:10:45.540Z,11.39
2023-05-07T03:13:12.132Z,11.37
2023-05-07T03:15:38.795Z,11.29
2023-05-07T03:18:05.368Z,11.26
2023-05-07T03:20:32.053Z,11.29
2023-05-07T03:23:01.030Z,11.29
2023-05-07T03:25:27.610Z,11.24
2023-05-07T03:27:54.194Z,11.20
2023-05-07T03:30:21.090Z,11.19
2023-05-07T03:32:47.528Z,11.21
2023-05-07T03:35:13.935Z,11.10
2023-05-07T03:37:40.802Z,11.09
2023-05-07T03:40:09.103Z,11.10
2023-05-07T03:42:38.116Z,11.05
2023-05-07T03:45:04.829Z,11.04
2023-05-07T03:47:31.346Z,11.05
2023-05-07T03:49:57.830Z,11.00
2023-05-07T03:52:27.098Z,10.98
2023-05-07T03:54:54.534Z,10.97
2023-05-07T03:57:21.406Z,10.95
2023-05-07T03:59:47.800Z,10.92
2023-05-07T04:02:14.450Z,10.89
2023-05-07T04:04:40.972Z,10.97
2023-05-07T04:07:08.413Z,10.90
2023-05-07T04:09:34.959Z,10.95
2023-05-07T04:12:02.306Z,10.99
2023-05-07T04:14:28.781Z,10.99
2023-05-07T04:16:55.615Z,10.98
2023-05-07T04:19:22.367Z,10.98
2023-05-07T04:21:48.850Z,11.05
2023-05-07T04:24:15.258Z,11.06
2023-05-07T04:26:41.651Z,11.10
2023-05-07T04:29:08.642Z,11.13
2023-05-07T04:31:37.447Z,11.19
2023-05-07T04:34:03.784Z,11.28
2023-05-07T04:36:30.640Z,11.37
2023-05-07T04:38:57.122Z,11.46
2023-05-07T04:41:23.588Z,11.53
2023-05-07T04:43:49.983Z,11.70
2023-05-07T04:46:16.460Z,11.78
2023-05-07T04:48:45.455Z,11.87
2023-05-07T04:51:12.000Z,12.01
2023-05-07T04:53:38.812Z,12.10
2023-05-07T04:56:05.370Z,12.20
2023-05-07T04:58:32.684Z,12.32
2023-05-07T05:01:00.205Z,12.43
2023-05-07T05:03:26.977Z,12.51
2023-05-07T05:05:53.979Z,12.60
2023-05-07T05:08:20.522Z,12.66
2023-05-07T05:10:47.248Z,12.76
2023-05-07T05:13:13.885Z,12.80
2023-05-07T05:15:40.613Z,12.89
2023-05-07T05:18:09.566Z,12.94
2023-05-07T05:20:36.128Z,13.04
2023-05-07T05:23:02.696Z,13.12
2023-05-07T05:25:29.432Z,13.17
2023-05-07T05:27:56.175Z,13.32
2023-05-07T05:30:23.268Z,13.37
2023-05-07T05:32:49.774Z,13.41
2023-05-07T05:35:16.533Z,13.48
2023-05-07T05:37:43.049Z,13.49
2023-05-07T05:40:09.945Z,13.58
2023-05-07T05:42:36.613Z,13.61
2023-05-07T05:45:03.175Z,13.60
2023-05-07T05:47:30.858Z,13.73
2023-05-07T05:49:57.302Z,13.76
2023-05-07T05:52:26.009Z,13.91
2023-05-07T05:54:53.664Z,14.00
2023-05-07T05:57:20.283Z,14.11
2023-05-07T05:59:48.480Z,14.28
2023-05-07T06:02:15.125Z,14.42
2023-05-07T06:04:41.916Z,14.51
2023-05-07T06:07:08.395Z,14.66
2023-05-07T06:09:34.724Z,14.60
2023-05-07T06:12:01.233Z,14.84
2023-05-07T06:14:27.760Z,14.96
2023-05-07T06:16:54.285Z,15.16
2023-05-07T06:19:24.998Z,15.20
2023-05-07T06:21:51.722Z,15.26
2023-05-07T06:24:18.133Z,15.48
2023-05-07T06:26:44.608Z,15.63
2023-05-07T06:29:11.104Z,15.59
2023-05-07T06:31:37.654Z,15.62
2023-05-07T06:34:04.230Z,15.58
2023-05-07T06:36:33.253Z,15.66
2023-05-07T06:39:02.388Z,15.66
2023-05-07T06:41:28.921Z,15.82
2023-05-07T06:43:55.449Z,15.91
2023-05-07T06:46:21.917Z,15.90
2023-05-07T06:48:48.456Z,15.97
2023-05-07T06:51:14.798Z,16.37
2023-05-07T06:53:41.550Z,16.38
2023-05-07T06:56:07.920Z,16.35
2023-05-07T06:58:35.189Z,16.24
2023-05-07T07:01:04.095Z,16.52
2023-05-07T07:03:33.330Z,16.51
2023-05-07T07:06:00.366Z,16.69
2023-05-07T07:08:26.854Z,16.80
2023-05-07T07:10:53.208Z,16.68
2023-05-07T07:13:20.793Z,16.75
2023-05-07T07:15:47.397Z,17.25
2023-05-07T07:18:13.940Z,17.45
2023-05-07T07:20:42.554Z,17.28
2023-05-07T07:23:08.971Z,17.85
2023-05-07T07:25:35.419Z,18.09
2023-05-07T07:28:03.669Z,18.27
2023-05-07T07:30:30.071Z,18.48
2023-05-07T07:33:01.434Z,18.49
2023-05-07T07:35:28.122Z,18.40
2023-05-07T07:37:54.444Z,18.45
2023-05-07T07:40:20.928Z,18.50
2023-05-07T07:42:50.545Z,18.64
2023-05-07T07:45:16.944Z,18.50
2023-05-07T07:47:43.727Z,18.62
2023-05-07T07:50:18.719Z,18.82
2023-05-07T07:52:51.663Z,18.95
2023-05-07T07:55:23.837Z,19.02
2023-05-07T07:57:50.861Z,18.88
2023-05-07T08:00:20.050Z,18.92
2023-05-07T08:02:46.521Z,18.97
2023-05-07T08:05:12.946Z,19.14
2023-05-07T08:07:41.784Z,19.18
2023-05-07T08:10:11.087Z,19.15
2023-05-07T08:12:37.821Z,19.26
2023-05-07T08:15:05.649Z,19.40
2023-05-07T08:17:34.406Z,19.37
2023-05-07T08:20:03.087Z,19.42
2023-05-07T08:22:29.573Z,19.60
2023-05-07T08:24:56.323Z,19.98
2023-05-07T08:27:22.666Z,20.42
2023-05-07T08:29:54.889Z,20.71
2023-05-07T08:32:25.266Z,20.68
2023-05-07T08:34:52.108Z,21.05
2023-05-07T08:37:18.492Z,21.42
2023-05-07T08:39:44.899Z,21.50
2023-05-07T08:42:16.816Z,21.61
2023-05-07T08:44:47.882Z,21.71
2023-05-07T08:47:14.410Z,22.30
2023-05-07T08:49:41.067Z,22.71
2023-05-07T08:52:10.255Z,22.89
2023-05-07T08:54:40.474Z,23.09
2023-05-07T08:57:09.245Z,22.35
2023-05-07T08:59:35.845Z,22.52
2023-05-07T09:02:09.830Z,22.32
2023-05-07T09:04:38.757Z,22.26
2023-05-07T09:07:06.360Z,22.92
2023-05-07T09:09:37.844Z,22.95
2023-05-07T09:12:04.843Z,23.21
2023-05-07T09:14:31.633Z,23.09
2023-05-07T09:16:58.042Z,23.04
2023-05-07T09:19:25.821Z,22.66
2023-05-07T09:22:07.856Z,22.27
2023-05-07T09:24:38.802Z,22.67
2023-05-07T09:27:06.111Z,22.81
2023-05-07T09:29:38.808Z,22.17
2023-05-07T09:32:09.706Z,22.32
2023-05-07T09:34:37.151Z,22.53
2023-05-07T09:37:05.436Z,22.62
2023-05-07T09:39:48.705Z,22.73
2023-05-07T09:42:17.951Z,22.95
2023-05-07T09:44:45.470Z,22.26
2023-05-07T09:47:19.180Z,22.35
2023-05-07T09:49:48.869Z,22.86
2023-05-07T09:52:18.649Z,23.15
2023-05-07T09:54:46.158Z,23.56
2023-05-07T09:57:13.010Z,23.72
2023-05-07T09:59:41.380Z,23.46
2023-05-07T10:02:11.328Z,23.58
2023-05-07T10:04:43.575Z,23.53
2023-05-07T10:07:10.612Z,23.18
2023-05-07T10:09:39.417Z,23.65
2023-05-07T10:12:07.299Z,23.02
2023-05-07T10:14:34.692Z,23.64
2023-05-07T10:17:02.931Z,23.98
2023-05-07T10:19:30.917Z,24.06
2023-05-07T10:22:02.848Z,24.19
2023-05-07T10:24:37.895Z,24.35
2023-05-07T10:27:13.351Z,24.35
2023-05-07T10:29:58.529Z,24.35
2023-05-07T10:32:43.615Z,24.26
2023-05-07T10:35:24.928Z,24.55
2023-05-07T10:37:51.919Z,24.39
2023-05-07T10:40:21.828Z,24.45
2023-05-07T10:43:01.351Z,24.53
2023-05-07T10:45:29.115Z,24.71
2023-05-07T10:50:43.282Z,23.68
2023-05-07T10:53:21.515Z,23.80
2023-05-07T10:55:53.597Z,24.12
2023-05-07T10:58:31.440Z,24.16
2023-05-07T11:00:59.586Z,24.52
2023-05-07T11:03:27.219Z,24.44
2023-05-07T11:06:09.691Z,24.66
2023-05-07T11:08:56.536Z,24.94
2023-05-07T11:11:48.676Z,24.88
2023-05-07T11:14:35.838Z,25.04
2023-05-07T11:17:07.888Z,25.06
2023-05-07T11:19:51.548Z,25.11
2023-05-07T11:22:33.949Z,25.41
2023-05-07T11:25:01.457Z,25.21
2023-05-07T11:27:28.019Z,24.99
2023-05-07T11:29:54.521Z,24.96
2023-05-07T11:32:26.228Z,24.97
2023-05-07T11:34:53.890Z,25.27
2023-05-07T11:37:21.635Z,25.04
2023-05-07T11:40:04.957Z,25.61
2023-05-07T11:42:35.595Z,25.57
2023-05-07T11:45:02.874Z,25.27
2023-05-07T11:47:31.641Z,25.54
2023-05-07T11:50:05.446Z,25.55
2023-05-07T11:52:33.113Z,25.35
2023-05-07T11:55:01.019Z,25.16
2023-05-07T11:57:30.402Z,25.52
2023-05-07T11:59:59.725Z,25.49
2023-05-07T12:02:29.481Z,25.64
2023-05-07T12:04:56.204Z,25.36
2023-05-07T12:07:24.715Z,25.08
2023-05-07T12:09:51.347Z,24.74
2023-05-07T12:12:18.365Z,24.67
2023-05-07T12:14:46.590Z,24.49
2023-05-07T12:17:14.902Z,24.81
2023-05-07T12:19:43.577Z,24.91
2023-05-07T12:22:10.759Z,25.11
2023-05-07T12:24:57.546Z,25.00
2023-05-07T12:27:27.092Z,25.17
2023-05-07T12:29:53.525Z,25.19
2023-05-07T12:32:23.296Z,25.22
2023-05-07T12:34:56.663Z,25.29
2023-05-07T12:37:27.935Z,25.09
2023-05-07T12:40:08.576Z,24.97
2023-05-07T12:42:43.322Z,24.85
2023-05-07T12:45:14.627Z,24.51
2023-05-07T12:47:47.333Z,24.49
2023-05-07T12:50:20.731Z,24.42
2023-05-07T12:52:48.626Z,24.43
2023-05-07T12:55:16.844Z,24.51
2023-05-07T12:57:47.600Z,24.50
2023-05-07T13:00:17.731Z,24.31
2023-05-07T13:02:46.287Z,24.22
2023-05-07T13:05:15.432Z,24.18
2023-05-07T13:07:42.626Z,24.16
2023-05-07T13:10:09.712Z,23.90
2023-05-07T13:12:36.592Z,23.97
2023-05-07T13:15:05.461Z,23.93
2023-05-07T13:17:32.443Z,23.68
2023-05-07T13:19:59.225Z,23.71
2023-05-07T13:22:25.703Z,23.66
2023-05-07T13:24:52.192Z,23.65
2023-05-07T13:27:20.139Z,23.65
2023-05-07T13:29:46.480Z,23.62
2023-05-07T13:32:13.014Z,23.56
2023-05-07T13:34:39.822Z,23.51
2023-05-07T13:37:11.204Z,23.50
2023-05-07T13:39:37.966Z,23.37
2023-05-07T13:42:04.429Z,23.35
2023-05-07T13:44:30.781Z,23.29
2023-05-07T13:46:59.813Z,23.27
2023-05-07T13:49:26.249Z,23.33
2023-05-07T13:51:54.758Z,23.30
2023-05-07T13:54:21.813Z,23.07
2023-05-07T13:56:48.972Z,22.84
2023-05-07T13:59:15.548Z,22.39
2023-05-07T14:01:44.322Z,21.90
2023-05-07T14:04:13.205Z,21.51
2023-05-07T14:06:42.191Z,21.40
2023-05-07T14:09:14.385Z,21.29
2023-05-07T14:11:45.149Z,21.10
2023-05-07T14:14:14.243Z,20.94
2023-05-07T14:16:41.186Z,20.96
2023-05-07T14:19:10.272Z,20.84
2023-05-07T14:21:36.599Z,20.85
2023-05-07T14:24:03.168Z,20.40
2023-05-07T14:26:30.258Z,19.79
2023-05-07T14:28:59.142Z,19.26
2023-05-07T14:31:28.209Z,18.87
2023-05-07T14:33:54.876Z,18.55
2023-05-07T14:36:22.195Z,18.12
2023-05-07T14:38:49.989Z,17.58
2023-05-07T14:41:16.998Z,17.10
2023-05-07T14:43:43.416Z,16.88
2023-05-07T14:46:10.071Z,16.69
2023-05-07T14:48:36.590Z,16.51
2023-05-07T14:51:03.122Z,16.27
2023-05-07T14:53:34.127Z,15.84
2023-05-07T14:56:01.124Z,15.73
2023-05-07T14:58:30.207Z,15.59
2023-05-07T15:00:59.750Z,15.47
2023-05-07T15:03:26.478Z,15.42
2023-05-07T15:05:53.154Z,15.34
2023-05-07T15:08:19.615Z,15.31
2023-05-07T15:10:46.230Z,15.22
2023-05-07T15:13:15.919Z,15.16
2023-05-07T15:15:46.647Z,15.13
2023-05-07T15:18:15.502Z,15.07
2023-05-07T15:20:44.599Z,15.03
2023-05-07T15:23:12.666Z,14.99
2023-05-07T15:25:39.066Z,14.95
2023-05-07T15:28:10.420Z,14.98
2023-05-07T15:30:37.140Z,14.94
2023-05-07T15:33:06.426Z,14.94
2023-05-07T15:35:32.885Z,14.92
2023-05-07T15:37:59.354Z,14.99
2023-05-07T15:40:25.878Z,14.95
2023-05-07T15:42:55.806Z,14.98
2023-05-07T15:45:22.432Z,15.11
2023-05-07T15:47:51.391Z,15.06
2023-05-07T15:50:18.102Z,15.16
2023-05-07T15:52:45.892Z,15.24
2023-05-07T15:55:12.629Z,15.20
2023-05-07T15:57:39.186Z,15.19
2023-05-07T16:00:09.286Z,15.11
2023-05-07T16:02:36.900Z,15.03
2023-05-07T16:05:03.647Z,14.95
2023-05-07T16:07:30.259Z,14.96
2023-05-07T16:09:56.614Z,14.89
2023-05-07T16:12:23.087Z,14.87
2023-05-07T16:14:51.300Z,14.90
2023-05-07T16:17:17.885Z,14.91
2023-05-07T16:19:44.530Z,14.89
2023-05-07T16:22:11.294Z,14.83
2023-05-07T16:24:39.804Z,14.81
2023-05-07T16:27:06.591Z,14.75
2023-05-07T16:29:32.984Z,14.99
2023-05-07T16:31:59.507Z,14.92
2023-05-07T16:34:25.942Z,15.01
2023-05-07T16:36:53.564Z,14.89
2023-05-07T16:39:20.109Z,14.97
2023-05-07T16:41:50.684Z,15.00
2023-05-07T16:44:18.062Z,14.98
2023-05-07T16:46:44.711Z,14.95
2023-05-07T16:49:11.124Z,14.91
2023-05-07T16:51:43.369Z,14.95
2023-05-07T16:54:09.958Z,14.91
2023-05-07T16:56:38.741Z,14.82
2023-05-07T16:59:05.122Z,14.86
2023-05-07T17:01:32.670Z,14.86
2023-05-07T17:04:01.595Z,14.85
2023-05-07T17:06:28.273Z,14.85
2023-05-07T17:08:54.624Z,14.84
2023-05-07T17:11:23.466Z,14.83
2023-05-07T17:13:51.669Z,14.79
2023-05-07T17:16:20.261Z,14.88
2023-05-07T17:18:46.646Z,14.87
2023-05-07T17:21:13.009Z,14.86
2023-05-07T17:23:39.609Z,14.84
2023-05-07T17:26:11.747Z,14.81
2023-05-07T17:28:41.240Z,14.83
2023-05-07T17:31:07.691Z,14.89
2023-05-07T17:33:34.262Z,14.85
2023-05-07T17:36:03.161Z,14.83
2023-05-07T17:38:30.642Z,14.85
2023-05-07T17:40:58.709Z,14.78
2023-05-07T17:43:25.271Z,14.83
2023-05-07T17:45:51.816Z,14.83
2023-05-07T17:48:18.312Z,14.90
2023-05-07T17:50:44.936Z,14.77
2023-05-07T17:53:12.599Z,14.74
2023-05-07T17:55:43.680Z,14.81
2023-05-07T17:58:11.102Z,14.81
2023-05-07T18:00:37.776Z,14.71
2023-05-07T18:03:05.016Z,14.71
2023-05-07T18:05:31.952Z,14.71
2023-05-07T18:07:58.319Z,14.68
2023-05-07T18:10:24.771Z,14.65
2023-05-07T18:12:51.543Z,14.71
2023-05-07T18:15:17.994Z,14.61
2023-05-07T18:17:44.445Z,14.77
2023-05-07T18:20:12.309Z,14.74
2023-05-07T18:22:38.970Z,14.69
2023-05-07T18:25:06.002Z,14.65
2023-05-07T18:27:35.076Z,14.63
2023-05-07T18:30:01.951Z,14.58
2023-05-07T18:32:28.480Z,14.54
2023-05-07T18:34:55.134Z,14.55
2023-05-07T18:37:21.880Z,14.54
2023-05-07T18:39:49.430Z,14.50
2023-05-07T18:42:15.844Z,14.50
2023-05-07T18:44:42.418Z,14.46
2023-05-07T18:47:08.785Z,14.45
2023-05-07T18:49:36.045Z,14.47
2023-05-07T18:52:02.620Z,14.48
2023-05-07T18:54:28.996Z,14.46
2023-05-07T18:56:55.407Z,14.51
2023-05-07T18:59:22.232Z,14.52
2023-05-07T19:01:50.938Z,14.49
2023-05-07T19:04:20.509Z,14.47
2023-05-07T19:06:50.370Z,14.45
2023-05-07T19:09:16.716Z,14.45
2023-05-07T19:11:45.751Z,14.44
2023-05-07T19:14:12.113Z,14.42
2023-05-07T19:16:38.655Z,14.41
2023-05-07T19:19:05.906Z,14.40
2023-05-07T19:21:34.522Z,14.41
2023-05-07T19:24:00.879Z,14.40
2023-05-07T19:26:27.408Z,14.38
2023-05-07T19:29:06.585Z,14.37
2023-05-07T19:31:39.010Z,14.37
2023-05-07T19:34:05.391Z,14.36
2023-05-07T19:36:34.356Z,14.33
2023-05-07T19:39:01.184Z,14.33
2023-05-07T19:41:28.582Z,14.31
2023-05-07T19:43:55.349Z,14.27
2023-05-07T19:46:22.136Z,14.28
2023-05-07T19:48:48.626Z,14.27
2023-05-07T19:51:15.095Z,14.25
2023-05-07T19:53:41.577Z,14.26
2023-05-07T19:56:11.356Z,14.26
2023-05-07T19:58:38.607Z,14.25
2023-05-07T20:01:08.245Z,14.24
2023-05-07T20:03:35.399Z,14.24
2023-05-07T20:06:02.704Z,14.21
2023-05-07T20:08:29.552Z,14.24
2023-05-07T20:10:58.059Z,14.17
2023-05-07T20:13:26.990Z,14.16
2023-05-07T20:15:58.214Z,14.12
2023-05-07T20:18:25.416Z,14.09
2023-05-07T20:20:51.909Z,14.17
2023-05-07T20:23:18.464Z,14.24
2023-05-07T20:25:50.233Z,14.24
2023-05-07T20:28:16.745Z,14.23
2023-05-07T20:30:49.338Z,14.20
2023-05-07T20:33:18.382Z,14.17
2023-05-07T20:35:45.188Z,14.23
2023-05-07T20:38:14.364Z,14.21
2023-05-07T20:40:40.840Z,14.19
2023-05-07T20:43:07.246Z,14.26
2023-05-07T20:45:35.962Z,14.19
2023-05-07T20:48:02.606Z,14.27
2023-05-07T20:50:32.192Z,14.31
2023-05-07T20:53:00.967Z,14.26
2023-05-07T20:55:29.977Z,14.24
2023-05-07T20:57:58.857Z,14.33
2023-05-07T21:00:27.702Z,14.46
2023-05-07T21:02:54.370Z,14.45
2023-05-07T21:05:23.306Z,14.41
2023-05-07T21:07:49.687Z,14.39
2023-05-07T21:10:16.181Z,14.35
2023-05-07T21:12:42.704Z,14.44
2023-05-07T21:15:12.543Z,14.32
2023-05-07T21:17:41.402Z,14.36
2023-05-07T21:20:11.860Z,14.35
2023-05-07T21:22:41.852Z,14.32
2023-05-07T21:25:09.500Z,14.31
2023-05-07T21:27:36.829Z,14.23
2023-05-07T21:30:05.715Z,14.34
2023-05-07T21:32:32.380Z,14.39
2023-05-07T21:35:00.640Z,14.36
2023-05-07T21:37:27.154Z,14.39
2023-05-07T21:39:53.617Z,14.39
2023-05-07T21:42:22.423Z,14.26
2023-05-07T21:44:49.548Z,14.23
2023-05-07T21:47:19.245Z,14.26
2023-05-07T21:49:46.291Z,14.27
2023-05-07T21:52:19.637Z,14.23
2023-05-07T21:54:51.596Z,14.21
2023-05-07T21:57:17.964Z,14.18
2023-05-07T21:59:44.352Z,14.14
2023-05-07T22:02:10.717Z,14.20
2023-05-07T22:04:37.280Z,14.15
2023-05-07T22:07:06.423Z,14.14
2023-05-07T22:09:32.816Z,14.12
2023-05-07T22:12:00.144Z,14.11
2023-05-07T22:14:27.368Z,14.09
2023-05-07T22:16:56.273Z,14.14
2023-05-07T22:19:22.658Z,14.22
2023-05-07T22:21:49.311Z,14.14
2023-05-07T22:24:16.311Z,14.22
2023-05-07T22:26:42.757Z,14.29
2023-05-07T22:29:09.269Z,14.28
2023-05-07T22:31:35.720Z,14.25
2023-05-07T22:34:02.221Z,14.26
2023-05-07T22:36:28.597Z,14.25
2023-05-07T22:38:55.043Z,14.27
2023-05-07T22:41:21.597Z,14.21
2023-05-07T22:43:48.279Z,14.23
2023-05-07T22:46:14.901Z,14.28
2023-05-07T22:48:43.734Z,14.22
2023-05-07T22:51:14.508Z,14.27
2023-05-07T22:53:41.105Z,14.33
2023-05-07T22:56:12.686Z,14.28
2023-05-07T22:58:39.236Z,14.27
2023-05-07T23:01:13.366Z,14.28
2023-05-07T23:03:42.244Z,14.30
2023-05-07T23:06:08.794Z,14.29
2023-05-07T23:08:35.457Z,14.24
2023-05-07T23:11:01.971Z,14.25
2023-05-07T23:13:28.429Z,14.24
2023-05-07T23:15:54.884Z,14.23
2023-05-07T23:18:21.361Z,14.22
2023-05-07T23:20:47.706Z,14.21
2023-05-07T23:23:14.311Z,14.22
2023-05-07T23:25:42.958Z,14.22
2023-05-07T23:28:09.300Z,14.23
2023-05-07T23:30:40.001Z,14.21
2023-05-07T23:33:14.104Z,14.18
2023-05-07T23:35:40.615Z,14.20
2023-05-07T23:38:07.181Z,14.34
2023-05-07T23:40:33.664Z,14.25
2023-05-07T23:43:00.170Z,14.26
2023-05-07T23:45:33.960Z,14.27
2023-05-07T23:48:03.861Z,14.25
2023-05-07T23:50:30.207Z,14.23
2023-05-07T23:52:56.624Z,14.21
2023-05-07T23:55:25.219Z,14.21
2023-05-07T23:57:51.778Z,14.25
